sensor_id;sensor_type;location;lat;lon;timestamp;P1;durP1;ratioP1;P2;durP2;ratioP2
54921;SDS011;40824;45.116;21.296;2023-04-26T00:00:00;12.13;;;10.57;;
54921;SDS011;40824;45.116;21.296;2023-04-26T00:02:26;11.85;;;10.07;;
54921;SDS011;40824;45.116;21.296;2023-04-26T00:04:53;11.85;;;10.45;;
54921;SDS011;40824;45.116;21.296;2023-04-26T00:07:23;11.75;;;10.00;;
54921;SDS011;40824;45.116;21.296;2023-04-26T00:09:50;11.40;;;10.15;;
54921;SDS011;40824;45.116;21.296;2023-04-26T00:12:17;13.43;;;10.50;;
54921;SDS011;40824;45.116;21.296;2023-04-26T00:14:43;14.02;;;10.27;;
54921;SDS011;40824;45.116;21.296;2023-04-26T00:17:09;12.02;;;9.48;;
54921;SDS011;40824;45.116;21.296;2023-04-26T00:19:35;12.77;;;9.95;;
54921;SDS011;40824;45.116;21.296;2023-04-26T00:22:02;11.27;;;9.10;;
54921;SDS011;40824;45.116;21.296;2023-04-26T00:24:29;12.05;;;9.32;;
54921;SDS011;40824;45.116;21.296;2023-04-26T00:26:56;10.13;;;9.02;;
54921;SDS011;40824;45.116;21.296;2023-04-26T00:29:22;11.93;;;9.15;;
54921;SDS011;40824;45.116;21.296;2023-04-26T00:31:49;10.95;;;9.63;;
54921;SDS011;40824;45.116;21.296;2023-04-26T00:34:15;12.10;;;8.98;;
54921;SDS011;40824;45.116;21.296;2023-04-26T00:36:41;10.93;;;9.23;;
54921;SDS011;40824;45.116;21.296;2023-04-26T00:39:07;13.10;;;9.48;;
54921;SDS011;40824;45.116;21.296;2023-04-26T00:41:34;10.52;;;9.05;;
54921;SDS011;40824;45.116;21.296;2023-04-26T00:44:00;11.55;;;10.05;;
54921;SDS011;40824;45.116;21.296;2023-04-26T00:46:26;11.85;;;9.38;;
54921;SDS011;40824;45.116;21.296;2023-04-26T00:48:52;10.77;;;9.27;;
54921;SDS011;40824;45.116;21.296;2023-04-26T00:51:19;12.82;;;9.98;;
54921;SDS011;40824;45.116;21.296;2023-04-26T00:53:45;13.02;;;10.35;;
54921;SDS011;40824;45.116;21.296;2023-04-26T00:56:13;14.40;;;10.57;;
54921;SDS011;40824;45.116;21.296;2023-04-26T00:58:41;15.68;;;12.02;;
54921;SDS011;40824;45.116;21.296;2023-04-26T01:01:07;11.90;;;9.80;;
54921;SDS011;40824;45.116;21.296;2023-04-26T01:03:34;11.68;;;10.10;;
54921;SDS011;40824;45.116;21.296;2023-04-26T01:06:02;12.68;;;10.32;;
54921;SDS011;40824;45.116;21.296;2023-04-26T01:08:28;11.70;;;9.93;;
54921;SDS011;40824;45.116;21.296;2023-04-26T01:10:54;13.32;;;10.02;;
54921;SDS011;40824;45.116;21.296;2023-04-26T01:13:21;15.80;;;11.15;;
54921;SDS011;40824;45.116;21.296;2023-04-26T01:15:47;17.73;;;11.00;;
54921;SDS011;40824;45.116;21.296;2023-04-26T01:18:13;15.25;;;11.00;;
54921;SDS011;40824;45.116;21.296;2023-04-26T01:20:40;13.68;;;11.10;;
54921;SDS011;40824;45.116;21.296;2023-04-26T01:23:07;14.73;;;10.57;;
54921;SDS011;40824;45.116;21.296;2023-04-26T01:25:33;12.65;;;10.57;;
54921;SDS011;40824;45.116;21.296;2023-04-26T01:27:59;12.68;;;10.50;;
54921;SDS011;40824;45.116;21.296;2023-04-26T01:30:25;12.27;;;9.93;;
54921;SDS011;40824;45.116;21.296;2023-04-26T01:32:51;11.20;;;9.38;;
54921;SDS011;40824;45.116;21.296;2023-04-26T01:35:18;12.35;;;9.93;;
54921;SDS011;40824;45.116;21.296;2023-04-26T01:37:44;13.68;;;10.68;;
54921;SDS011;40824;45.116;21.296;2023-04-26T01:40:11;13.02;;;10.48;;
54921;SDS011;40824;45.116;21.296;2023-04-26T01:42:37;14.43;;;11.48;;
54921;SDS011;40824;45.116;21.296;2023-04-26T01:45:03;14.50;;;11.43;;
54921;SDS011;40824;45.116;21.296;2023-04-26T01:47:30;13.98;;;10.77;;
54921;SDS011;40824;45.116;21.296;2023-04-26T01:49:56;14.80;;;11.05;;
54921;SDS011;40824;45.116;21.296;2023-04-26T01:52:22;14.73;;;11.07;;
54921;SDS011;40824;45.116;21.296;2023-04-26T01:54:48;12.85;;;10.80;;
54921;SDS011;40824;45.116;21.296;2023-04-26T01:57:15;13.10;;;10.85;;
54921;SDS011;40824;45.116;21.296;2023-04-26T01:59:41;17.80;;;10.80;;
54921;SDS011;40824;45.116;21.296;2023-04-26T02:02:07;15.48;;;10.82;;
54921;SDS011;40824;45.116;21.296;2023-04-26T02:04:33;13.00;;;10.82;;
54921;SDS011;40824;45.116;21.296;2023-04-26T02:06:59;13.77;;;10.48;;
54921;SDS011;40824;45.116;21.296;2023-04-26T02:09:25;14.48;;;10.95;;
54921;SDS011;40824;45.116;21.296;2023-04-26T02:11:51;13.88;;;10.98;;
54921;SDS011;40824;45.116;21.296;2023-04-26T02:14:18;12.68;;;10.73;;
54921;SDS011;40824;45.116;21.296;2023-04-26T02:16:44;14.05;;;12.30;;
54921;SDS011;40824;45.116;21.296;2023-04-26T02:19:10;15.07;;;11.93;;
54921;SDS011;40824;45.116;21.296;2023-04-26T02:21:49;13.57;;;11.25;;
54921;SDS011;40824;45.116;21.296;2023-04-26T02:24:16;14.45;;;10.93;;
54921;SDS011;40824;45.116;21.296;2023-04-26T02:26:42;16.35;;;11.18;;
54921;SDS011;40824;45.116;21.296;2023-04-26T02:29:08;13.98;;;10.38;;
54921;SDS011;40824;45.116;21.296;2023-04-26T02:31:34;13.85;;;10.88;;
54921;SDS011;40824;45.116;21.296;2023-04-26T02:34:00;13.65;;;10.80;;
54921;SDS011;40824;45.116;21.296;2023-04-26T02:36:26;13.15;;;10.40;;
54921;SDS011;40824;45.116;21.296;2023-04-26T02:38:53;11.32;;;9.82;;
54921;SDS011;40824;45.116;21.296;2023-04-26T02:41:19;12.65;;;10.57;;
54921;SDS011;40824;45.116;21.296;2023-04-26T02:43:45;13.07;;;10.63;;
54921;SDS011;40824;45.116;21.296;2023-04-26T02:46:12;11.90;;;9.82;;
54921;SDS011;40824;45.116;21.296;2023-04-26T02:48:38;13.43;;;10.50;;
54921;SDS011;40824;45.116;21.296;2023-04-26T02:51:05;16.00;;;9.70;;
54921;SDS011;40824;45.116;21.296;2023-04-26T02:53:31;15.15;;;10.27;;
54921;SDS011;40824;45.116;21.296;2023-04-26T02:55:57;11.32;;;9.70;;
54921;SDS011;40824;45.116;21.296;2023-04-26T02:58:24;12.75;;;10.02;;
54921;SDS011;40824;45.116;21.296;2023-04-26T03:00:50;13.05;;;9.98;;
54921;SDS011;40824;45.116;21.296;2023-04-26T03:03:18;10.43;;;8.75;;
54921;SDS011;40824;45.116;21.296;2023-04-26T03:05:44;10.73;;;8.68;;
54921;SDS011;40824;45.116;21.296;2023-04-26T03:08:11;10.82;;;8.77;;
54921;SDS011;40824;45.116;21.296;2023-04-26T03:10:37;13.40;;;9.35;;
54921;SDS011;40824;45.116;21.296;2023-04-26T03:13:06;10.75;;;8.80;;
54921;SDS011;40824;45.116;21.296;2023-04-26T03:15:32;10.88;;;8.15;;
54921;SDS011;40824;45.116;21.296;2023-04-26T03:17:58;11.18;;;8.90;;
54921;SDS011;40824;45.116;21.296;2023-04-26T03:20:24;14.32;;;9.10;;
54921;SDS011;40824;45.116;21.296;2023-04-26T03:22:50;13.60;;;8.55;;
54921;SDS011;40824;45.116;21.296;2023-04-26T03:25:17;13.77;;;8.57;;
54921;SDS011;40824;45.116;21.296;2023-04-26T03:27:43;9.95;;;8.82;;
54921;SDS011;40824;45.116;21.296;2023-04-26T03:30:09;13.07;;;10.13;;
54921;SDS011;40824;45.116;21.296;2023-04-26T03:32:37;15.20;;;10.40;;
54921;SDS011;40824;45.116;21.296;2023-04-26T03:35:03;12.90;;;10.13;;
54921;SDS011;40824;45.116;21.296;2023-04-26T03:37:29;15.30;;;12.07;;
54921;SDS011;40824;45.116;21.296;2023-04-26T03:39:55;15.57;;;11.50;;
54921;SDS011;40824;45.116;21.296;2023-04-26T03:42:22;15.38;;;12.73;;
54921;SDS011;40824;45.116;21.296;2023-04-26T03:44:48;15.98;;;12.73;;
54921;SDS011;40824;45.116;21.296;2023-04-26T03:47:14;17.95;;;12.95;;
54921;SDS011;40824;45.116;21.296;2023-04-26T03:49:42;13.27;;;11.93;;
54921;SDS011;40824;45.116;21.296;2023-04-26T03:52:11;15.13;;;12.77;;
54921;SDS011;40824;45.116;21.296;2023-04-26T03:54:37;18.85;;;12.77;;
54921;SDS011;40824;45.116;21.296;2023-04-26T03:57:03;17.38;;;12.38;;
54921;SDS011;40824;45.116;21.296;2023-04-26T03:59:30;16.20;;;12.32;;
54921;SDS011;40824;45.116;21.296;2023-04-26T04:01:56;18.30;;;13.13;;
54921;SDS011;40824;45.116;21.296;2023-04-26T04:04:22;17.10;;;13.45;;
54921;SDS011;40824;45.116;21.296;2023-04-26T04:06:49;17.88;;;14.38;;
54921;SDS011;40824;45.116;21.296;2023-04-26T04:09:15;14.55;;;12.88;;
54921;SDS011;40824;45.116;21.296;2023-04-26T04:11:41;15.23;;;13.50;;
54921;SDS011;40824;45.116;21.296;2023-04-26T04:14:07;20.05;;;16.48;;
54921;SDS011;40824;45.116;21.296;2023-04-26T04:16:33;20.10;;;16.60;;
54921;SDS011;40824;45.116;21.296;2023-04-26T04:19:02;21.40;;;16.30;;
54921;SDS011;40824;45.116;21.296;2023-04-26T04:21:29;19.58;;;15.88;;
54921;SDS011;40824;45.116;21.296;2023-04-26T04:23:56;20.05;;;15.07;;
54921;SDS011;40824;45.116;21.296;2023-04-26T04:26:22;19.15;;;14.32;;
54921;SDS011;40824;45.116;21.296;2023-04-26T04:28:48;18.70;;;14.90;;
54921;SDS011;40824;45.116;21.296;2023-04-26T04:31:15;18.27;;;13.80;;
54921;SDS011;40824;45.116;21.296;2023-04-26T04:33:44;15.20;;;13.55;;
54921;SDS011;40824;45.116;21.296;2023-04-26T04:36:10;16.23;;;13.05;;
54921;SDS011;40824;45.116;21.296;2023-04-26T04:38:36;20.27;;;13.88;;
54921;SDS011;40824;45.116;21.296;2023-04-26T04:41:02;15.68;;;13.63;;
54921;SDS011;40824;45.116;21.296;2023-04-26T04:43:28;15.13;;;13.40;;
54921;SDS011;40824;45.116;21.296;2023-04-26T04:45:54;16.88;;;13.43;;
54921;SDS011;40824;45.116;21.296;2023-04-26T04:48:20;17.02;;;13.30;;
54921;SDS011;40824;45.116;21.296;2023-04-26T04:50:47;15.55;;;13.30;;
54921;SDS011;40824;45.116;21.296;2023-04-26T04:53:14;15.40;;;12.70;;
54921;SDS011;40824;45.116;21.296;2023-04-26T04:55:41;13.15;;;11.75;;
54921;SDS011;40824;45.116;21.296;2023-04-26T04:58:07;14.80;;;12.32;;
54921;SDS011;40824;45.116;21.296;2023-04-26T05:00:33;15.30;;;12.55;;
54921;SDS011;40824;45.116;21.296;2023-04-26T05:03:01;15.48;;;12.77;;
54921;SDS011;40824;45.116;21.296;2023-04-26T05:05:27;15.38;;;13.32;;
54921;SDS011;40824;45.116;21.296;2023-04-26T05:07:54;16.75;;;12.60;;
54921;SDS011;40824;45.116;21.296;2023-04-26T05:10:20;12.98;;;11.57;;
54921;SDS011;40824;45.116;21.296;2023-04-26T05:12:46;12.20;;;10.82;;
54921;SDS011;40824;45.116;21.296;2023-04-26T05:15:12;12.07;;;10.75;;
54921;SDS011;40824;45.116;21.296;2023-04-26T05:17:38;12.77;;;9.02;;
54921;SDS011;40824;45.116;21.296;2023-04-26T05:20:04;10.35;;;9.25;;
54921;SDS011;40824;45.116;21.296;2023-04-26T05:22:32;11.05;;;9.90;;
54921;SDS011;40824;45.116;21.296;2023-04-26T05:25:00;11.02;;;9.15;;
54921;SDS011;40824;45.116;21.296;2023-04-26T05:27:31;10.48;;;9.07;;
54921;SDS011;40824;45.116;21.296;2023-04-26T05:29:59;11.27;;;8.95;;
54921;SDS011;40824;45.116;21.296;2023-04-26T05:32:25;12.15;;;9.07;;
54921;SDS011;40824;45.116;21.296;2023-04-26T05:34:51;10.63;;;9.52;;
54921;SDS011;40824;45.116;21.296;2023-04-26T05:37:17;13.13;;;9.45;;
54921;SDS011;40824;45.116;21.296;2023-04-26T05:39:43;11.77;;;8.55;;
54921;SDS011;40824;45.116;21.296;2023-04-26T05:42:13;11.07;;;9.20;;
54921;SDS011;40824;45.116;21.296;2023-04-26T05:44:39;11.45;;;9.32;;
54921;SDS011;40824;45.116;21.296;2023-04-26T05:47:05;11.07;;;9.10;;
54921;SDS011;40824;45.116;21.296;2023-04-26T05:49:31;10.30;;;8.90;;
54921;SDS011;40824;45.116;21.296;2023-04-26T05:51:58;10.93;;;8.75;;
54921;SDS011;40824;45.116;21.296;2023-04-26T05:54:24;10.27;;;9.10;;
54921;SDS011;40824;45.116;21.296;2023-04-26T05:56:50;9.80;;;8.80;;
54921;SDS011;40824;45.116;21.296;2023-04-26T05:59:17;13.68;;;8.93;;
54921;SDS011;40824;45.116;21.296;2023-04-26T06:01:43;12.68;;;9.10;;
54921;SDS011;40824;45.116;21.296;2023-04-26T06:04:09;9.27;;;8.05;;
54921;SDS011;40824;45.116;21.296;2023-04-26T06:06:35;9.18;;;8.18;;
54921;SDS011;40824;45.116;21.296;2023-04-26T06:09:01;10.88;;;8.43;;
54921;SDS011;40824;45.116;21.296;2023-04-26T06:11:28;11.40;;;8.23;;
54921;SDS011;40824;45.116;21.296;2023-04-26T06:13:55;9.30;;;8.07;;
54921;SDS011;40824;45.116;21.296;2023-04-26T06:16:21;9.73;;;7.55;;
54921;SDS011;40824;45.116;21.296;2023-04-26T06:18:47;10.23;;;8.25;;
54921;SDS011;40824;45.116;21.296;2023-04-26T06:21:16;9.77;;;8.02;;
54921;SDS011;40824;45.116;21.296;2023-04-26T06:23:42;9.05;;;7.45;;
54921;SDS011;40824;45.116;21.296;2023-04-26T06:26:08;13.88;;;7.45;;
54921;SDS011;40824;45.116;21.296;2023-04-26T06:28:34;11.60;;;7.68;;
54921;SDS011;40824;45.116;21.296;2023-04-26T06:31:00;9.13;;;7.45;;
54921;SDS011;40824;45.116;21.296;2023-04-26T06:33:26;8.35;;;6.57;;
54921;SDS011;40824;45.116;21.296;2023-04-26T06:35:52;7.43;;;6.38;;
54921;SDS011;40824;45.116;21.296;2023-04-26T06:38:19;8.38;;;5.30;;
54921;SDS011;40824;45.116;21.296;2023-04-26T06:40:47;5.93;;;5.22;;
54921;SDS011;40824;45.116;21.296;2023-04-26T06:43:13;5.95;;;5.28;;
54921;SDS011;40824;45.116;21.296;2023-04-26T06:45:39;6.68;;;4.40;;
54921;SDS011;40824;45.116;21.296;2023-04-26T06:48:10;5.93;;;4.47;;
54921;SDS011;40824;45.116;21.296;2023-04-26T06:50:37;6.95;;;4.97;;
54921;SDS011;40824;45.116;21.296;2023-04-26T06:53:04;5.60;;;5.00;;
54921;SDS011;40824;45.116;21.296;2023-04-26T06:55:30;8.32;;;5.38;;
54921;SDS011;40824;45.116;21.296;2023-04-26T06:57:56;7.00;;;5.38;;
54921;SDS011;40824;45.116;21.296;2023-04-26T07:00:22;5.75;;;5.07;;
54921;SDS011;40824;45.116;21.296;2023-04-26T07:02:48;6.53;;;4.30;;
54921;SDS011;40824;45.116;21.296;2023-04-26T07:05:14;7.00;;;4.90;;
54921;SDS011;40824;45.116;21.296;2023-04-26T07:07:40;7.15;;;5.97;;
54921;SDS011;40824;45.116;21.296;2023-04-26T07:10:07;6.93;;;5.40;;
54921;SDS011;40824;45.116;21.296;2023-04-26T07:12:34;8.27;;;5.97;;
54921;SDS011;40824;45.116;21.296;2023-04-26T07:15:00;7.00;;;6.30;;
54921;SDS011;40824;45.116;21.296;2023-04-26T07:17:26;6.10;;;5.45;;
54921;SDS011;40824;45.116;21.296;2023-04-26T07:19:52;6.65;;;4.95;;
54921;SDS011;40824;45.116;21.296;2023-04-26T07:22:18;7.20;;;5.03;;
54921;SDS011;40824;45.116;21.296;2023-04-26T07:24:44;7.60;;;5.78;;
54921;SDS011;40824;45.116;21.296;2023-04-26T07:27:10;6.80;;;6.07;;
54921;SDS011;40824;45.116;21.296;2023-04-26T07:29:37;6.72;;;4.63;;
54921;SDS011;40824;45.116;21.296;2023-04-26T07:32:03;5.88;;;4.47;;
54921;SDS011;40824;45.116;21.296;2023-04-26T07:34:30;4.70;;;4.00;;
54921;SDS011;40824;45.116;21.296;2023-04-26T07:36:56;4.90;;;3.80;;
54921;SDS011;40824;45.116;21.296;2023-04-26T07:39:22;6.00;;;4.90;;
54921;SDS011;40824;45.116;21.296;2023-04-26T07:41:49;5.25;;;4.35;;
54921;SDS011;40824;45.116;21.296;2023-04-26T07:44:15;8.70;;;4.85;;
54921;SDS011;40824;45.116;21.296;2023-04-26T07:46:41;6.90;;;5.03;;
54921;SDS011;40824;45.116;21.296;2023-04-26T07:49:07;6.65;;;4.45;;
54921;SDS011;40824;45.116;21.296;2023-04-26T07:51:35;4.97;;;3.90;;
54921;SDS011;40824;45.116;21.296;2023-04-26T07:54:01;5.03;;;4.18;;
54921;SDS011;40824;45.116;21.296;2023-04-26T07:56:27;6.80;;;4.80;;
54921;SDS011;40824;45.116;21.296;2023-04-26T07:58:53;7.28;;;5.03;;
54921;SDS011;40824;45.116;21.296;2023-04-26T08:01:20;5.50;;;4.53;;
54921;SDS011;40824;45.116;21.296;2023-04-26T08:03:46;6.70;;;4.72;;
54921;SDS011;40824;45.116;21.296;2023-04-26T08:06:13;7.22;;;4.90;;
54921;SDS011;40824;45.116;21.296;2023-04-26T08:08:39;6.10;;;4.80;;
54921;SDS011;40824;45.116;21.296;2023-04-26T08:11:08;6.20;;;4.28;;
54921;SDS011;40824;45.116;21.296;2023-04-26T08:13:35;7.03;;;4.70;;
54921;SDS011;40824;45.116;21.296;2023-04-26T08:16:01;7.10;;;4.53;;
54921;SDS011;40824;45.116;21.296;2023-04-26T08:18:27;6.45;;;4.90;;
54921;SDS011;40824;45.116;21.296;2023-04-26T08:20:53;8.52;;;5.25;;
54921;SDS011;40824;45.116;21.296;2023-04-26T08:23:19;8.68;;;5.63;;
54921;SDS011;40824;45.116;21.296;2023-04-26T08:25:46;5.93;;;5.18;;
54921;SDS011;40824;45.116;21.296;2023-04-26T08:28:13;9.38;;;5.70;;
54921;SDS011;40824;45.116;21.296;2023-04-26T08:30:40;8.38;;;5.82;;
54921;SDS011;40824;45.116;21.296;2023-04-26T08:33:06;11.25;;;6.68;;
54921;SDS011;40824;45.116;21.296;2023-04-26T08:35:32;12.18;;;7.25;;
54921;SDS011;40824;45.116;21.296;2023-04-26T08:37:59;8.13;;;6.55;;
54921;SDS011;40824;45.116;21.296;2023-04-26T08:40:26;9.00;;;7.47;;
54921;SDS011;40824;45.116;21.296;2023-04-26T08:42:52;9.50;;;8.23;;
54921;SDS011;40824;45.116;21.296;2023-04-26T08:45:19;12.45;;;8.80;;
54921;SDS011;40824;45.116;21.296;2023-04-26T08:47:49;12.63;;;8.60;;
54921;SDS011;40824;45.116;21.296;2023-04-26T08:50:17;11.30;;;9.05;;
54921;SDS011;40824;45.116;21.296;2023-04-26T08:52:44;13.57;;;9.32;;
54921;SDS011;40824;45.116;21.296;2023-04-26T08:55:12;11.23;;;9.18;;
54921;SDS011;40824;45.116;21.296;2023-04-26T08:57:40;11.43;;;8.93;;
54921;SDS011;40824;45.116;21.296;2023-04-26T09:00:07;11.10;;;9.40;;
54921;SDS011;40824;45.116;21.296;2023-04-26T09:02:38;10.93;;;8.68;;
54921;SDS011;40824;45.116;21.296;2023-04-26T09:05:08;10.13;;;7.20;;
54921;SDS011;40824;45.116;21.296;2023-04-26T09:07:38;9.95;;;7.82;;
54921;SDS011;40824;45.116;21.296;2023-04-26T09:10:05;11.27;;;7.80;;
54921;SDS011;40824;45.116;21.296;2023-04-26T09:12:31;8.73;;;7.47;;
54921;SDS011;40824;45.116;21.296;2023-04-26T09:14:58;8.85;;;7.90;;
54921;SDS011;40824;45.116;21.296;2023-04-26T09:19:57;9.35;;;8.35;;
54921;SDS011;40824;45.116;21.296;2023-04-26T09:22:33;13.20;;;8.75;;
54921;SDS011;40824;45.116;21.296;2023-04-26T09:25:01;11.35;;;9.27;;
54921;SDS011;40824;45.116;21.296;2023-04-26T09:27:31;10.43;;;9.32;;
54921;SDS011;40824;45.116;21.296;2023-04-26T09:32:24;11.85;;;10.65;;
54921;SDS011;40824;45.116;21.296;2023-04-26T09:34:51;12.43;;;10.70;;
54921;SDS011;40824;45.116;21.296;2023-04-26T09:37:17;14.57;;;10.10;;
54921;SDS011;40824;45.116;21.296;2023-04-26T09:39:43;11.40;;;10.20;;
54921;SDS011;40824;45.116;21.296;2023-04-26T09:42:09;11.70;;;9.75;;
54921;SDS011;40824;45.116;21.296;2023-04-26T09:44:36;12.85;;;10.13;;
54921;SDS011;40824;45.116;21.296;2023-04-26T09:49:42;12.63;;;10.38;;
54921;SDS011;40824;45.116;21.296;2023-04-26T09:52:12;10.70;;;9.25;;
54921;SDS011;40824;45.116;21.296;2023-04-26T09:57:14;11.23;;;8.10;;
54921;SDS011;40824;45.116;21.296;2023-04-26T10:02:28;11.88;;;8.48;;
54921;SDS011;40824;45.116;21.296;2023-04-26T10:04:54;9.32;;;8.32;;
54921;SDS011;40824;45.116;21.296;2023-04-26T10:07:22;10.63;;;8.85;;
54921;SDS011;40824;45.116;21.296;2023-04-26T10:09:48;9.98;;;8.30;;
54921;SDS011;40824;45.116;21.296;2023-04-26T10:12:15;13.07;;;8.93;;
54921;SDS011;40824;45.116;21.296;2023-04-26T10:14:42;8.30;;;7.43;;
54921;SDS011;40824;45.116;21.296;2023-04-26T10:17:09;10.48;;;7.78;;
54921;SDS011;40824;45.116;21.296;2023-04-26T10:19:39;8.57;;;7.10;;
54921;SDS011;40824;45.116;21.296;2023-04-26T10:22:09;8.52;;;7.65;;
54921;SDS011;40824;45.116;21.296;2023-04-26T10:24:36;9.52;;;7.18;;
54921;SDS011;40824;45.116;21.296;2023-04-26T10:27:02;15.35;;;7.45;;
54921;SDS011;40824;45.116;21.296;2023-04-26T10:32:14;7.50;;;5.63;;
54921;SDS011;40824;45.116;21.296;2023-04-26T10:34:44;6.72;;;5.38;;
54921;SDS011;40824;45.116;21.296;2023-04-26T10:37:11;7.97;;;5.07;;
54921;SDS011;40824;45.116;21.296;2023-04-26T10:39:38;5.63;;;4.50;;
54921;SDS011;40824;45.116;21.296;2023-04-26T10:42:23;7.57;;;4.55;;
54921;SDS011;40824;45.116;21.296;2023-04-26T10:49:49;6.50;;;3.92;;
54921;SDS011;40824;45.116;21.296;2023-04-26T10:52:16;5.88;;;4.60;;
54921;SDS011;40824;45.116;21.296;2023-04-26T10:54:47;7.82;;;4.15;;
54921;SDS011;40824;45.116;21.296;2023-04-26T10:57:14;6.38;;;4.57;;
54921;SDS011;40824;45.116;21.296;2023-04-26T11:00:06;6.15;;;5.03;;
54921;SDS011;40824;45.116;21.296;2023-04-26T11:05:22;6.03;;;3.45;;
54921;SDS011;40824;45.116;21.296;2023-04-26T11:08:03;6.00;;;4.55;;
54921;SDS011;40824;45.116;21.296;2023-04-26T11:10:29;7.63;;;4.13;;
54921;SDS011;40824;45.116;21.296;2023-04-26T11:12:59;5.70;;;4.10;;
54921;SDS011;40824;45.116;21.296;2023-04-26T11:15:27;5.80;;;5.13;;
54921;SDS011;40824;45.116;21.296;2023-04-26T11:17:53;7.03;;;4.07;;
54921;SDS011;40824;45.116;21.296;2023-04-26T11:20:19;7.18;;;4.22;;
54921;SDS011;40824;45.116;21.296;2023-04-26T11:22:45;7.40;;;4.40;;
54921;SDS011;40824;45.116;21.296;2023-04-26T11:25:11;7.65;;;4.18;;
54921;SDS011;40824;45.116;21.296;2023-04-26T11:27:38;10.50;;;4.70;;
54921;SDS011;40824;45.116;21.296;2023-04-26T11:30:04;9.85;;;3.13;;
54921;SDS011;40824;45.116;21.296;2023-04-26T11:32:31;6.35;;;3.38;;
54921;SDS011;40824;45.116;21.296;2023-04-26T11:34:58;4.13;;;2.97;;
54921;SDS011;40824;45.116;21.296;2023-04-26T11:37:25;7.57;;;3.20;;
54921;SDS011;40824;45.116;21.296;2023-04-26T11:39:51;5.22;;;3.15;;
54921;SDS011;40824;45.116;21.296;2023-04-26T11:42:17;4.93;;;3.25;;
54921;SDS011;40824;45.116;21.296;2023-04-26T11:44:49;5.10;;;2.67;;
54921;SDS011;40824;45.116;21.296;2023-04-26T11:47:17;5.25;;;3.55;;
54921;SDS011;40824;45.116;21.296;2023-04-26T11:49:44;4.82;;;3.00;;
54921;SDS011;40824;45.116;21.296;2023-04-26T11:52:11;7.88;;;3.15;;
54921;SDS011;40824;45.116;21.296;2023-04-26T11:54:37;5.18;;;2.75;;
54921;SDS011;40824;45.116;21.296;2023-04-26T11:57:13;6.78;;;3.10;;
54921;SDS011;40824;45.116;21.296;2023-04-26T11:59:39;4.22;;;3.03;;
54921;SDS011;40824;45.116;21.296;2023-04-26T12:02:06;5.10;;;3.63;;
54921;SDS011;40824;45.116;21.296;2023-04-26T12:04:32;4.00;;;2.38;;
54921;SDS011;40824;45.116;21.296;2023-04-26T12:06:58;4.40;;;2.95;;
54921;SDS011;40824;45.116;21.296;2023-04-26T12:09:27;4.35;;;2.97;;
54921;SDS011;40824;45.116;21.296;2023-04-26T12:11:57;4.03;;;2.90;;
54921;SDS011;40824;45.116;21.296;2023-04-26T12:14:31;6.50;;;3.40;;
54921;SDS011;40824;45.116;21.296;2023-04-26T12:19:24;4.10;;;3.17;;
54921;SDS011;40824;45.116;21.296;2023-04-26T12:21:50;5.05;;;3.58;;
54921;SDS011;40824;45.116;21.296;2023-04-26T12:24:23;5.57;;;4.20;;
54921;SDS011;40824;45.116;21.296;2023-04-26T12:26:50;3.58;;;3.03;;
54921;SDS011;40824;45.116;21.296;2023-04-26T12:29:16;5.35;;;3.75;;
54921;SDS011;40824;45.116;21.296;2023-04-26T12:31:42;3.67;;;3.10;;
54921;SDS011;40824;45.116;21.296;2023-04-26T12:34:08;6.90;;;3.55;;
54921;SDS011;40824;45.116;21.296;2023-04-26T12:36:34;4.78;;;2.67;;
54921;SDS011;40824;45.116;21.296;2023-04-26T12:39:00;5.78;;;4.00;;
54921;SDS011;40824;45.116;21.296;2023-04-26T12:41:29;4.28;;;3.47;;
54921;SDS011;40824;45.116;21.296;2023-04-26T12:43:56;5.05;;;3.42;;
54921;SDS011;40824;45.116;21.296;2023-04-26T12:46:22;4.20;;;3.13;;
54921;SDS011;40824;45.116;21.296;2023-04-26T12:48:49;6.95;;;5.80;;
54921;SDS011;40824;45.116;21.296;2023-04-26T12:51:16;7.07;;;5.32;;
54921;SDS011;40824;45.116;21.296;2023-04-26T12:53:42;6.72;;;5.18;;
54921;SDS011;40824;45.116;21.296;2023-04-26T12:56:08;7.82;;;5.90;;
54921;SDS011;40824;45.116;21.296;2023-04-26T12:58:34;9.07;;;5.75;;
54921;SDS011;40824;45.116;21.296;2023-04-26T13:01:00;8.02;;;6.22;;
54921;SDS011;40824;45.116;21.296;2023-04-26T13:03:26;6.35;;;5.47;;
54921;SDS011;40824;45.116;21.296;2023-04-26T13:05:53;9.07;;;5.60;;
54921;SDS011;40824;45.116;21.296;2023-04-26T13:08:19;8.00;;;5.03;;
54921;SDS011;40824;45.116;21.296;2023-04-26T13:10:46;6.95;;;5.20;;
54921;SDS011;40824;45.116;21.296;2023-04-26T13:13:12;13.23;;;7.57;;
54921;SDS011;40824;45.116;21.296;2023-04-26T13:15:38;6.57;;;5.05;;
54921;SDS011;40824;45.116;21.296;2023-04-26T13:18:05;7.53;;;5.85;;
54921;SDS011;40824;45.116;21.296;2023-04-26T13:20:31;10.90;;;5.88;;
54921;SDS011;40824;45.116;21.296;2023-04-26T13:22:57;6.90;;;4.38;;
54921;SDS011;40824;45.116;21.296;2023-04-26T13:25:23;6.10;;;5.10;;
54921;SDS011;40824;45.116;21.296;2023-04-26T13:27:49;6.03;;;5.03;;
54921;SDS011;40824;45.116;21.296;2023-04-26T13:30:17;8.65;;;5.38;;
54921;SDS011;40824;45.116;21.296;2023-04-26T13:32:43;6.22;;;4.63;;
54921;SDS011;40824;45.116;21.296;2023-04-26T13:35:09;5.70;;;4.50;;
54921;SDS011;40824;45.116;21.296;2023-04-26T13:37:36;10.18;;;5.65;;
54921;SDS011;40824;45.116;21.296;2023-04-26T13:40:02;8.77;;;5.15;;
54921;SDS011;40824;45.116;21.296;2023-04-26T13:42:28;7.80;;;4.70;;
54921;SDS011;40824;45.116;21.296;2023-04-26T13:44:55;9.20;;;5.70;;
54921;SDS011;40824;45.116;21.296;2023-04-26T13:47:21;6.05;;;5.10;;
54921;SDS011;40824;45.116;21.296;2023-04-26T13:49:47;7.53;;;5.65;;
54921;SDS011;40824;45.116;21.296;2023-04-26T13:52:13;10.57;;;5.70;;
54921;SDS011;40824;45.116;21.296;2023-04-26T13:54:40;11.10;;;5.35;;
54921;SDS011;40824;45.116;21.296;2023-04-26T13:57:06;5.75;;;4.57;;
54921;SDS011;40824;45.116;21.296;2023-04-26T13:59:32;7.35;;;5.93;;
54921;SDS011;40824;45.116;21.296;2023-04-26T14:01:58;7.15;;;4.75;;
54921;SDS011;40824;45.116;21.296;2023-04-26T14:04:25;8.13;;;5.60;;
54921;SDS011;40824;45.116;21.296;2023-04-26T14:06:52;8.18;;;5.22;;
54921;SDS011;40824;45.116;21.296;2023-04-26T14:09:18;7.18;;;5.57;;
54921;SDS011;40824;45.116;21.296;2023-04-26T14:11:44;7.40;;;5.93;;
54921;SDS011;40824;45.116;21.296;2023-04-26T14:14:10;7.00;;;6.13;;
54921;SDS011;40824;45.116;21.296;2023-04-26T14:16:36;7.35;;;5.70;;
54921;SDS011;40824;45.116;21.296;2023-04-26T14:19:02;7.95;;;6.25;;
54921;SDS011;40824;45.116;21.296;2023-04-26T14:21:28;7.90;;;5.85;;
54921;SDS011;40824;45.116;21.296;2023-04-26T14:23:55;9.23;;;6.30;;
54921;SDS011;40824;45.116;21.296;2023-04-26T14:26:23;8.40;;;6.60;;
54921;SDS011;40824;45.116;21.296;2023-04-26T14:28:50;10.77;;;8.10;;
54921;SDS011;40824;45.116;21.296;2023-04-26T14:31:16;9.52;;;7.20;;
54921;SDS011;40824;45.116;21.296;2023-04-26T14:33:43;9.98;;;6.72;;
54921;SDS011;40824;45.116;21.296;2023-04-26T14:36:10;8.57;;;6.75;;
54921;SDS011;40824;45.116;21.296;2023-04-26T14:38:39;9.00;;;6.65;;
54921;SDS011;40824;45.116;21.296;2023-04-26T14:41:05;9.13;;;8.13;;
54921;SDS011;40824;45.116;21.296;2023-04-26T14:43:31;14.55;;;8.55;;
54921;SDS011;40824;45.116;21.296;2023-04-26T14:45:58;10.80;;;7.82;;